Weather History for Weaverville, CA

Change the Weather History Date:

Tuesday, April 24, 2012

  Actual Average (KRDD) Record (KRDD)
Temperature  
Mean Temperature 60 °F -  
Max Temperature 69 °F 73 °F 87 °F (2013)
Min Temperature 51 °F 48 °F 32 °F (2008)
Degree Days  
Heating Degree Days 5    
Cooling Degree Days 0    
Growing Degree Days 10 (Base 50)    
Moisture  
Dew Point 47 °F    
Average Humidity 62    
Maximum Humidity 77    
Minimum Humidity 43    
Precipitation  
Precipitation 0.00 in 0.08 in 0.66 in (1989)
Month to date precipitation 2.03  
Year to date precipitation 17.87  
Since 1 July precipitation 31.63  
Sea Level Pressure  
Sea Level Pressure 29.99 in    
Wind  
Wind Speed 1 mph (East)    
Max Wind Speed 9 mph    
Max Gust Speed -    
Visibility 10 miles    
Events      
T = Trace of Precipitation, MM = Missing Value Source: NWS Daily Summary

Daily Weather History Graph

Daily Weather History Graph

Search for Another Location

Airport:

Trip Planner

Search our weather history database for the weather conditions in past years. The results will help you decide how hot, cold, wet, or windy it might be!

Date:

Astronomy

Apr. 24, 2012 Rise Set
Actual Time 6:18 AM PDT 8:01 PM PDT
Civil Twilight 5:49 AM PDT 8:30 PM PDT
Nautical Twilight 5:14 AM PDT 9:05 PM PDT
Astronomical Twilight 4:36 AM PDT 9:43 PM PDT
Moon 8:17 AM PDT 11:26 PM PDT
Length of Visible Light 14h 40m
Length of Day
13h 42m
Waxing Crescent, 11% of the Moon is Illuminated
Apr 24
Waxing Crescent
Apr 29
First Quarter
May 5
Full
May 12
Last Quarter
May 20
New

Hourly Weather History & Observations

Time (PDT) Temp. Dew Point Humidity Pressure Visibility Wind Dir Wind Speed Gust Speed Precip Events Conditions
12:15 AM 62.6 °F 53.6 °F 72% 29.94 in 10.0 mi Calm Calm - N/A   Overcast
12:35 AM 60.8 °F 53.6 °F 77% 29.96 in 10.0 mi Calm Calm - N/A   Overcast
12:55 AM 59.0 °F 51.8 °F 77% 29.96 in 10.0 mi Calm Calm - N/A   Partly Cloudy
1:15 AM 59.0 °F 50.0 °F 72% 29.96 in 10.0 mi Calm Calm - N/A   Partly Cloudy
1:35 AM 59.0 °F 48.2 °F 67% 29.97 in 10.0 mi Calm Calm - N/A   Partly Cloudy
1:55 AM 57.2 °F 48.2 °F 72% 29.97 in 10.0 mi Calm Calm - N/A   Clear
2:15 AM 55.4 °F 46.4 °F 72% 29.97 in 10.0 mi Calm Calm - N/A   Clear
2:35 AM 55.4 °F 46.4 °F 72% 29.97 in 10.0 mi Calm Calm - N/A   Clear
2:55 AM 55.4 °F 46.4 °F 72% 29.98 in 10.0 mi Calm Calm - N/A   Clear
3:15 AM 55.4 °F 46.4 °F 72% 29.98 in 10.0 mi Calm Calm - N/A   Clear
3:35 AM 55.4 °F 44.6 °F 67% 29.99 in 10.0 mi Calm Calm - N/A   Clear
3:55 AM 53.6 °F 44.6 °F 72% 29.99 in 10.0 mi Calm Calm - N/A   Clear
4:15 AM 55.4 °F 44.6 °F 67% 29.99 in 10.0 mi Calm Calm - N/A   Clear
4:35 AM 53.6 °F 44.6 °F 72% 30.00 in 10.0 mi Calm Calm - N/A   Clear
4:55 AM 53.6 °F 44.6 °F 72% 29.99 in 10.0 mi Calm Calm - N/A   Clear
5:15 AM 53.6 °F 44.6 °F 72% 29.99 in 10.0 mi Calm Calm - N/A   Clear
5:35 AM 53.6 °F 44.6 °F 72% 30.00 in 10.0 mi Calm Calm - N/A   Clear
5:55 AM 53.6 °F 44.6 °F 72% 30.00 in 10.0 mi Calm Calm - N/A   Clear
6:15 AM 51.8 °F 44.6 °F 76% 30.00 in 10.0 mi Calm Calm - N/A   Clear
6:35 AM 51.8 °F 44.6 °F 76% 30.01 in 10.0 mi Calm Calm - N/A   Clear
6:55 AM 53.6 °F 44.6 °F 72% 30.02 in 10.0 mi Calm Calm - N/A   Clear
7:15 AM 53.6 °F 44.6 °F 72% 30.03 in 10.0 mi Calm Calm - N/A   Clear
7:35 AM 53.6 °F 44.6 °F 72% 30.04 in 10.0 mi Calm Calm - N/A   Clear
7:55 AM 53.6 °F 44.6 °F 72% 30.04 in 10.0 mi Calm Calm - N/A   Clear
8:15 AM 55.4 °F 44.6 °F 67% 30.06 in 10.0 mi East 4.6 mph - N/A   Mostly Cloudy
8:35 AM 57.2 °F 44.6 °F 63% 30.06 in 10.0 mi NNE 9.2 mph - N/A   Overcast
8:55 AM 57.2 °F 44.6 °F 63% 30.06 in 10.0 mi East 3.5 mph - N/A   Mostly Cloudy
9:15 AM 57.2 °F 44.6 °F 63% 30.05 in 10.0 mi NNE 8.1 mph - N/A   Clear
9:35 AM 59.0 °F 44.6 °F 59% 30.05 in 10.0 mi NE 8.1 mph - N/A   Clear
9:55 AM 59.0 °F 44.6 °F 59% 30.05 in 10.0 mi East 3.5 mph - N/A   Clear
10:15 AM 60.8 °F 44.6 °F 55% 30.05 in 10.0 mi ENE 5.8 mph - N/A   Clear
10:35 AM 62.6 °F 44.6 °F 52% 30.05 in 10.0 mi NE 8.1 mph - N/A   Scattered Clouds
10:55 AM 60.8 °F 44.6 °F 55% 30.05 in 10.0 mi NE 8.1 mph - N/A   Mostly Cloudy
11:15 AM 60.8 °F 44.6 °F 55% 30.04 in 10.0 mi ENE 3.5 mph - N/A   Overcast
11:35 AM 62.6 °F 44.6 °F 52% 30.04 in 10.0 mi SE 4.6 mph - N/A   Overcast
11:55 AM 60.8 °F 44.6 °F 55% 30.04 in 10.0 mi ESE 3.5 mph - N/A   Overcast
12:15 PM 64.4 °F 44.6 °F 49% 30.04 in 10.0 mi East 4.6 mph - N/A   Scattered Clouds
12:35 PM 64.4 °F 44.6 °F 49% 30.03 in 10.0 mi SE 3.5 mph - N/A   Clear
12:55 PM 66.2 °F 44.6 °F 46% 30.03 in 10.0 mi ESE 3.5 mph - N/A   Clear
1:15 PM 66.2 °F 46.4 °F 49% 30.02 in 10.0 mi Calm Calm - N/A   Clear
1:35 PM 66.2 °F 44.6 °F 46% 30.01 in 10.0 mi ESE 4.6 mph - N/A   Clear
1:55 PM 68.0 °F 44.6 °F 43% 30.00 in 10.0 mi ENE 3.5 mph - N/A   Clear
2:15 PM 68.0 °F 46.4 °F 46% 29.99 in 10.0 mi SE 4.6 mph - N/A   Clear
2:35 PM 68.0 °F 46.4 °F 46% 29.98 in 10.0 mi SSE 3.5 mph - N/A   Clear
2:55 PM 68.0 °F 46.4 °F 46% 29.97 in 10.0 mi South 3.5 mph - N/A   Clear
3:15 PM 68.0 °F 44.6 °F 43% 29.96 in 10.0 mi NNE 3.5 mph - N/A   Clear
3:35 PM 69.8 °F 46.4 °F 43% 29.96 in 10.0 mi SSE 4.6 mph - N/A   Clear
3:55 PM 68.0 °F 46.4 °F 46% 29.95 in 10.0 mi South 3.5 mph - N/A   Clear
4:15 PM 68.0 °F 46.4 °F 46% 29.94 in 10.0 mi Calm Calm - N/A   Clear
4:35 PM 69.8 °F 48.2 °F 46% 29.94 in 10.0 mi ESE 4.6 mph - N/A   Clear
4:55 PM 69.8 °F 48.2 °F 46% 29.93 in 10.0 mi Calm Calm - N/A   Clear
5:35 PM 68.0 °F 48.2 °F 49% 29.93 in 10.0 mi SE 3.5 mph - N/A   Clear
5:55 PM 68.0 °F 48.2 °F 49% 29.92 in 10.0 mi Calm Calm - N/A   Clear
6:15 PM 68.0 °F 48.2 °F 49% 29.92 in 10.0 mi Calm Calm - N/A   Clear
6:35 PM 66.2 °F 48.2 °F 52% 29.91 in 10.0 mi Calm Calm - N/A   Clear
6:55 PM 64.4 °F 48.2 °F 56% 29.91 in 10.0 mi Calm Calm - N/A   Clear
7:15 PM 62.6 °F 48.2 °F 59% 29.92 in 10.0 mi Calm Calm - N/A   Clear
7:35 PM 62.6 °F 48.2 °F 59% 29.93 in 10.0 mi Calm Calm - N/A   Clear
7:55 PM 60.8 °F 48.2 °F 63% 29.94 in 10.0 mi Calm Calm - N/A   Clear
8:15 PM 59.0 °F 48.2 °F 67% 29.94 in 10.0 mi Calm Calm - N/A   Partly Cloudy
8:35 PM 57.2 °F 48.2 °F 72% 29.95 in 10.0 mi North 3.5 mph - N/A   Mostly Cloudy
8:55 PM 57.2 °F 48.2 °F 72% 29.96 in 10.0 mi Calm Calm - N/A   Mostly Cloudy
9:15 PM 57.2 °F 48.2 °F 72% 29.97 in 10.0 mi NNE 3.5 mph - N/A   Overcast
9:35 PM 57.2 °F 48.2 °F 72% 29.98 in 10.0 mi Calm Calm - N/A   Overcast
9:55 PM 57.2 °F 48.2 °F 72% 29.99 in 10.0 mi Calm Calm - N/A   Overcast
10:15 PM 57.2 °F 48.2 °F 72% 29.99 in 10.0 mi NNE 3.5 mph - N/A   Overcast
10:35 PM 57.2 °F 48.2 °F 72% 29.99 in 10.0 mi NNE 3.5 mph - N/A   Overcast
10:55 PM 57.2 °F 48.2 °F 72% 29.98 in 10.0 mi Calm Calm - N/A   Overcast
11:15 PM 57.2 °F 48.2 °F 72% 29.98 in 10.0 mi Calm Calm - N/A   Overcast
11:35 PM 57.2 °F 48.2 °F 72% 29.99 in 10.0 mi Calm Calm - N/A   Overcast
11:55 PM 55.4 °F 48.2 °F 77% 29.99 in 10.0 mi Calm Calm - N/A   Overcast